sensor_id;sensor_type;location;lat;lon;timestamp;pressure;altitude;pressure_sealevel;temperature;humidity
55755;BME280;41674;52.290;-1.474;2022-11-15T00:02:58;99667.36;;;10.19;80.97
55755;BME280;41674;52.290;-1.474;2022-11-15T00:05:28;99662.60;;;9.70;80.88
55755;BME280;41674;52.290;-1.474;2022-11-15T00:07:57;99657.12;;;9.97;80.92
55755;BME280;41674;52.290;-1.474;2022-11-15T00:10:27;99653.23;;;9.44;82.17
55755;BME280;41674;52.290;-1.474;2022-11-15T00:12:56;99653.66;;;9.81;81.13
55755;BME280;41674;52.290;-1.474;2022-11-15T00:15:26;99652.70;;;8.80;83.42
55755;BME280;41674;52.290;-1.474;2022-11-15T00:17:55;99650.93;;;9.97;80.73
55755;BME280;41674;52.290;-1.474;2022-11-15T00:20:25;99650.01;;;10.37;79.12
55755;BME280;41674;52.290;-1.474;2022-11-15T00:22:55;99647.97;;;10.10;79.97
55755;BME280;41674;52.290;-1.474;2022-11-15T00:25:25;99645.88;;;8.82;83.51
55755;BME280;41674;52.290;-1.474;2022-11-15T00:27:55;99636.17;;;9.69;80.39
55755;BME280;41674;52.290;-1.474;2022-11-15T00:30:24;99634.31;;;8.50;84.37
55755;BME280;41674;52.290;-1.474;2022-11-15T00:32:54;99629.72;;;8.93;83.59
55755;BME280;41674;52.290;-1.474;2022-11-15T00:35:23;99620.34;;;9.57;81.48
55755;BME280;41674;52.290;-1.474;2022-11-15T00:37:52;99611.63;;;9.88;80.08
55755;BME280;41674;52.290;-1.474;2022-11-15T00:40:22;99604.32;;;8.86;84.14
55755;BME280;41674;52.290;-1.474;2022-11-15T00:42:51;99599.66;;;10.05;79.46
55755;BME280;41674;52.290;-1.474;2022-11-15T00:45:21;99590.90;;;10.14;78.04
55755;BME280;41674;52.290;-1.474;2022-11-15T00:47:51;99580.96;;;10.37;77.61
55755;BME280;41674;52.290;-1.474;2022-11-15T00:50:20;99573.61;;;10.68;77.13
55755;BME280;41674;52.290;-1.474;2022-11-15T00:52:50;99568.48;;;10.69;76.10
55755;BME280;41674;52.290;-1.474;2022-11-15T00:55:19;99560.13;;;10.52;76.64
55755;BME280;41674;52.290;-1.474;2022-11-15T00:57:49;99555.87;;;10.90;76.32
55755;BME280;41674;52.290;-1.474;2022-11-15T01:00:19;99545.16;;;10.87;76.37
55755;BME280;41674;52.290;-1.474;2022-11-15T01:02:49;99539.17;;;10.76;76.14
55755;BME280;41674;52.290;-1.474;2022-11-15T01:05:18;99537.23;;;10.90;75.56
55755;BME280;41674;52.290;-1.474;2022-11-15T01:07:51;99536.85;;;10.60;75.62
55755;BME280;41674;52.290;-1.474;2022-11-15T01:10:17;99530.50;;;10.63;75.72
55755;BME280;41674;52.290;-1.474;2022-11-15T01:12:47;99524.73;;;10.64;74.99
55755;BME280;41674;52.290;-1.474;2022-11-15T01:15:16;99518.03;;;10.80;74.98
55755;BME280;41674;52.290;-1.474;2022-11-15T01:17:49;99514.18;;;10.72;75.43
55755;BME280;41674;52.290;-1.474;2022-11-15T01:20:16;99512.33;;;10.67;75.30
55755;BME280;41674;52.290;-1.474;2022-11-15T01:22:45;99507.07;;;10.68;75.26
55755;BME280;41674;52.290;-1.474;2022-11-15T01:25:15;99499.78;;;10.33;76.59
55755;BME280;41674;52.290;-1.474;2022-11-15T01:27:44;99496.98;;;9.94;77.04
55755;BME280;41674;52.290;-1.474;2022-11-15T01:30:15;99501.11;;;10.62;76.23
55755;BME280;41674;52.290;-1.474;2022-11-15T01:32:44;99496.01;;;10.28;76.07
55755;BME280;41674;52.290;-1.474;2022-11-15T01:35:13;99499.93;;;10.47;76.22
55755;BME280;41674;52.290;-1.474;2022-11-15T01:37:43;99492.15;;;8.51;81.18
55755;BME280;41674;52.290;-1.474;2022-11-15T01:40:13;99484.12;;;9.37;80.50
55755;BME280;41674;52.290;-1.474;2022-11-15T01:42:42;99477.08;;;8.92;83.99
55755;BME280;41674;52.290;-1.474;2022-11-15T01:45:14;99467.65;;;9.79;80.82
55755;BME280;41674;52.290;-1.474;2022-11-15T01:47:44;99457.43;;;9.64;81.74
55755;BME280;41674;52.290;-1.474;2022-11-15T01:50:14;99453.37;;;9.57;82.20
55755;BME280;41674;52.290;-1.474;2022-11-15T01:52:41;99445.87;;;8.92;85.87
55755;BME280;41674;52.290;-1.474;2022-11-15T01:55:13;99442.61;;;8.54;86.85
55755;BME280;41674;52.290;-1.474;2022-11-15T01:57:42;99430.74;;;8.84;85.78
55755;BME280;41674;52.290;-1.474;2022-11-15T02:00:12;99426.51;;;9.24;87.25
55755;BME280;41674;52.290;-1.474;2022-11-15T02:02:39;99415.88;;;7.79;91.63
55755;BME280;41674;52.290;-1.474;2022-11-15T02:05:09;99409.92;;;7.55;93.55
55755;BME280;41674;52.290;-1.474;2022-11-15T02:07:38;99398.13;;;8.75;89.85
55755;BME280;41674;52.290;-1.474;2022-11-15T02:10:10;99392.62;;;7.30;95.02
55755;BME280;41674;52.290;-1.474;2022-11-15T02:12:37;99381.37;;;8.03;92.37
55755;BME280;41674;52.290;-1.474;2022-11-15T02:15:08;99380.07;;;8.19;91.51
55755;BME280;41674;52.290;-1.474;2022-11-15T02:17:48;99375.31;;;8.81;87.91
55755;BME280;41674;52.290;-1.474;2022-11-15T02:20:18;99370.22;;;8.33;90.07
55755;BME280;41674;52.290;-1.474;2022-11-15T02:22:43;99364.37;;;8.03;93.23
55755;BME280;41674;52.290;-1.474;2022-11-15T02:25:23;99361.33;;;7.67;94.24
55755;BME280;41674;52.290;-1.474;2022-11-15T02:30:17;99349.97;;;7.77;94.19
55755;BME280;41674;52.290;-1.474;2022-11-15T02:32:39;99347.37;;;7.96;95.78
55755;BME280;41674;52.290;-1.474;2022-11-15T02:35:11;99335.68;;;7.21;98.45
55755;BME280;41674;52.290;-1.474;2022-11-15T02:37:37;99332.61;;;6.79;100.00
55755;BME280;41674;52.290;-1.474;2022-11-15T02:40:10;99318.04;;;8.13;95.63
55755;BME280;41674;52.290;-1.474;2022-11-15T02:42:36;99312.76;;;7.95;96.58
55755;BME280;41674;52.290;-1.474;2022-11-15T02:45:06;99305.88;;;7.83;96.98
55755;BME280;41674;52.290;-1.474;2022-11-15T02:47:36;99305.14;;;7.88;98.04
55755;BME280;41674;52.290;-1.474;2022-11-15T02:50:05;99300.20;;;7.77;97.87
55755;BME280;41674;52.290;-1.474;2022-11-15T02:52:40;99289.27;;;7.64;99.63
55755;BME280;41674;52.290;-1.474;2022-11-15T02:55:02;99292.01;;;7.12;100.00
55755;BME280;41674;52.290;-1.474;2022-11-15T02:57:39;99289.09;;;8.51;96.77
55755;BME280;41674;52.290;-1.474;2022-11-15T03:00:05;99279.81;;;8.01;97.00
55755;BME280;41674;52.290;-1.474;2022-11-15T03:05:07;99277.64;;;7.72;98.78
55755;BME280;41674;52.290;-1.474;2022-11-15T03:07:32;99277.28;;;8.54;93.99
55755;BME280;41674;52.290;-1.474;2022-11-15T03:10:05;99273.17;;;8.06;95.37
55755;BME280;41674;52.290;-1.474;2022-11-15T03:12:33;99272.21;;;8.88;93.86
55755;BME280;41674;52.290;-1.474;2022-11-15T03:15:01;99266.77;;;8.10;95.77
55755;BME280;41674;52.290;-1.474;2022-11-15T03:17:30;99263.94;;;8.42;97.68
55755;BME280;41674;52.290;-1.474;2022-11-15T03:19:59;99259.44;;;7.70;100.00
55755;BME280;41674;52.290;-1.474;2022-11-15T03:22:30;99243.94;;;8.14;99.14
55755;BME280;41674;52.290;-1.474;2022-11-15T03:25:00;99241.66;;;8.18;100.00
55755;BME280;41674;52.290;-1.474;2022-11-15T03:27:30;99234.98;;;8.31;98.17
55755;BME280;41674;52.290;-1.474;2022-11-15T03:29:59;99236.49;;;8.74;96.25
55755;BME280;41674;52.290;-1.474;2022-11-15T03:32:27;99236.99;;;8.30;98.30
55755;BME280;41674;52.290;-1.474;2022-11-15T03:34:58;99230.50;;;8.10;100.00
55755;BME280;41674;52.290;-1.474;2022-11-15T03:37:30;99230.18;;;9.18;95.87
55755;BME280;41674;52.290;-1.474;2022-11-15T03:39:54;99228.56;;;8.53;97.11
55755;BME280;41674;52.290;-1.474;2022-11-15T03:42:30;99228.78;;;8.61;97.61
55755;BME280;41674;52.290;-1.474;2022-11-15T03:44:58;99225.09;;;9.29;94.38
55755;BME280;41674;52.290;-1.474;2022-11-15T03:47:28;99219.80;;;9.27;94.51
55755;BME280;41674;52.290;-1.474;2022-11-15T03:49:53;99207.34;;;9.40;93.54
55755;BME280;41674;52.290;-1.474;2022-11-15T03:52:22;99206.54;;;9.36;93.72
55755;BME280;41674;52.290;-1.474;2022-11-15T03:54:54;99204.78;;;9.49;93.03
55755;BME280;41674;52.290;-1.474;2022-11-15T03:57:21;99192.26;;;9.77;93.46
55755;BME280;41674;52.290;-1.474;2022-11-15T03:59:50;99191.03;;;9.25;97.21
55755;BME280;41674;52.290;-1.474;2022-11-15T04:02:20;99187.54;;;9.54;94.40
55755;BME280;41674;52.290;-1.474;2022-11-15T04:04:49;99191.67;;;8.89;96.94
55755;BME280;41674;52.290;-1.474;2022-11-15T04:07:19;99189.24;;;9.19;97.18
55755;BME280;41674;52.290;-1.474;2022-11-15T04:09:49;99181.79;;;9.72;94.60
55755;BME280;41674;52.290;-1.474;2022-11-15T04:12:18;99178.47;;;8.84;98.16
55755;BME280;41674;52.290;-1.474;2022-11-15T04:14:48;99163.81;;;9.83;95.72
55755;BME280;41674;52.290;-1.474;2022-11-15T04:17:17;99155.85;;;8.65;99.18
55755;BME280;41674;52.290;-1.474;2022-11-15T04:19:47;99147.37;;;9.31;99.23
55755;BME280;41674;52.290;-1.474;2022-11-15T04:22:17;99153.64;;;8.31;100.00
55755;BME280;41674;52.290;-1.474;2022-11-15T04:24:46;99134.13;;;9.15;100.00
55755;BME280;41674;52.290;-1.474;2022-11-15T04:27:16;99130.43;;;9.13;100.00
55755;BME280;41674;52.290;-1.474;2022-11-15T04:29:45;99127.55;;;8.82;100.00
55755;BME280;41674;52.290;-1.474;2022-11-15T04:32:15;99124.78;;;8.00;100.00
55755;BME280;41674;52.290;-1.474;2022-11-15T04:34:45;99111.49;;;7.75;100.00
55755;BME280;41674;52.290;-1.474;2022-11-15T04:37:14;99110.67;;;8.02;100.00
55755;BME280;41674;52.290;-1.474;2022-11-15T04:39:44;99101.98;;;8.13;100.00
55755;BME280;41674;52.290;-1.474;2022-11-15T04:42:13;99092.67;;;8.00;100.00
55755;BME280;41674;52.290;-1.474;2022-11-15T04:44:43;99095.27;;;8.26;100.00
55755;BME280;41674;52.290;-1.474;2022-11-15T04:47:13;99097.73;;;8.04;100.00
55755;BME280;41674;52.290;-1.474;2022-11-15T04:49:43;99091.26;;;9.42;100.00
55755;BME280;41674;52.290;-1.474;2022-11-15T04:52:12;99093.30;;;8.60;100.00
55755;BME280;41674;52.290;-1.474;2022-11-15T04:54:42;99091.52;;;8.54;100.00
55755;BME280;41674;52.290;-1.474;2022-11-15T04:57:11;99086.65;;;7.79;100.00
55755;BME280;41674;52.290;-1.474;2022-11-15T04:59:41;99078.24;;;8.34;100.00
55755;BME280;41674;52.290;-1.474;2022-11-15T05:02:10;99069.44;;;8.74;100.00
55755;BME280;41674;52.290;-1.474;2022-11-15T05:04:40;99051.48;;;8.15;100.00
55755;BME280;41674;52.290;-1.474;2022-11-15T05:07:10;99041.22;;;8.27;100.00
55755;BME280;41674;52.290;-1.474;2022-11-15T05:09:40;99041.79;;;8.45;100.00
55755;BME280;41674;52.290;-1.474;2022-11-15T05:12:09;99032.68;;;7.71;100.00
55755;BME280;41674;52.290;-1.474;2022-11-15T05:14:38;99025.81;;;8.23;100.00
55755;BME280;41674;52.290;-1.474;2022-11-15T05:17:08;99006.86;;;8.33;100.00
55755;BME280;41674;52.290;-1.474;2022-11-15T05:19:38;99000.91;;;7.78;100.00
55755;BME280;41674;52.290;-1.474;2022-11-15T05:22:07;98991.55;;;7.88;100.00
55755;BME280;41674;52.290;-1.474;2022-11-15T05:24:37;98980.75;;;7.98;100.00
55755;BME280;41674;52.290;-1.474;2022-11-15T05:27:06;98984.81;;;7.94;100.00
55755;BME280;41674;52.290;-1.474;2022-11-15T05:29:36;98975.53;;;8.31;100.00
55755;BME280;41674;52.290;-1.474;2022-11-15T05:32:06;98965.46;;;7.71;100.00
55755;BME280;41674;52.290;-1.474;2022-11-15T05:34:35;98962.22;;;7.04;100.00
55755;BME280;41674;52.290;-1.474;2022-11-15T05:37:05;98959.97;;;7.57;100.00
55755;BME280;41674;52.290;-1.474;2022-11-15T05:39:34;98957.26;;;8.09;100.00
55755;BME280;41674;52.290;-1.474;2022-11-15T05:42:08;98958.91;;;7.45;100.00
55755;BME280;41674;52.290;-1.474;2022-11-15T05:44:35;98948.93;;;7.63;100.00
55755;BME280;41674;52.290;-1.474;2022-11-15T05:47:05;98943.21;;;7.66;100.00
55755;BME280;41674;52.290;-1.474;2022-11-15T05:49:35;98940.56;;;7.67;100.00
55755;BME280;41674;52.290;-1.474;2022-11-15T05:52:04;98933.46;;;7.79;100.00
55755;BME280;41674;52.290;-1.474;2022-11-15T05:54:32;98927.32;;;7.71;100.00
55755;BME280;41674;52.290;-1.474;2022-11-15T05:57:02;98926.79;;;7.88;100.00
55755;BME280;41674;52.290;-1.474;2022-11-15T05:59:32;98926.56;;;7.36;100.00
55755;BME280;41674;52.290;-1.474;2022-11-15T06:02:01;98921.76;;;7.69;100.00
55755;BME280;41674;52.290;-1.474;2022-11-15T06:04:31;98923.13;;;7.45;100.00
55755;BME280;41674;52.290;-1.474;2022-11-15T06:07:00;98913.82;;;7.92;100.00
55755;BME280;41674;52.290;-1.474;2022-11-15T06:09:30;98915.12;;;7.98;100.00
55755;BME280;41674;52.290;-1.474;2022-11-15T06:11:59;98910.97;;;8.29;100.00
55755;BME280;41674;52.290;-1.474;2022-11-15T06:14:29;98911.66;;;8.32;100.00
55755;BME280;41674;52.290;-1.474;2022-11-15T06:16:59;98902.45;;;7.84;100.00
55755;BME280;41674;52.290;-1.474;2022-11-15T06:19:28;98906.67;;;7.98;100.00
55755;BME280;41674;52.290;-1.474;2022-11-15T06:21:58;98899.81;;;8.03;100.00
55755;BME280;41674;52.290;-1.474;2022-11-15T06:24:28;98898.00;;;8.61;100.00
55755;BME280;41674;52.290;-1.474;2022-11-15T06:26:57;98891.04;;;8.46;100.00
55755;BME280;41674;52.290;-1.474;2022-11-15T06:29:27;98897.92;;;8.53;100.00
55755;BME280;41674;52.290;-1.474;2022-11-15T06:31:56;98896.78;;;7.76;100.00
55755;BME280;41674;52.290;-1.474;2022-11-15T06:34:26;98899.24;;;8.05;100.00
55755;BME280;41674;52.290;-1.474;2022-11-15T06:36:56;98894.25;;;8.47;100.00
55755;BME280;41674;52.290;-1.474;2022-11-15T06:39:25;98891.65;;;8.44;100.00
55755;BME280;41674;52.290;-1.474;2022-11-15T06:41:55;98889.76;;;8.60;100.00
55755;BME280;41674;52.290;-1.474;2022-11-15T06:44:24;98890.92;;;8.11;100.00
55755;BME280;41674;52.290;-1.474;2022-11-15T06:46:54;98884.55;;;8.50;100.00
55755;BME280;41674;52.290;-1.474;2022-11-15T06:49:23;98883.04;;;9.38;100.00
55755;BME280;41674;52.290;-1.474;2022-11-15T06:51:53;98875.01;;;9.18;100.00
55755;BME280;41674;52.290;-1.474;2022-11-15T06:54:23;98875.80;;;8.94;100.00
55755;BME280;41674;52.290;-1.474;2022-11-15T06:56:52;98876.34;;;9.14;100.00
55755;BME280;41674;52.290;-1.474;2022-11-15T06:59:22;98872.95;;;8.96;100.00
55755;BME280;41674;52.290;-1.474;2022-11-15T07:01:51;98869.60;;;8.68;100.00
55755;BME280;41674;52.290;-1.474;2022-11-15T07:04:21;98864.36;;;8.87;100.00
55755;BME280;41674;52.290;-1.474;2022-11-15T07:06:51;98861.36;;;8.90;100.00
55755;BME280;41674;52.290;-1.474;2022-11-15T07:09:20;98858.50;;;8.79;100.00
55755;BME280;41674;52.290;-1.474;2022-11-15T07:11:50;98858.91;;;8.18;100.00
55755;BME280;41674;52.290;-1.474;2022-11-15T07:14:19;98854.02;;;8.27;100.00
55755;BME280;41674;52.290;-1.474;2022-11-15T07:16:49;98851.21;;;8.92;100.00
55755;BME280;41674;52.290;-1.474;2022-11-15T07:19:19;98843.31;;;8.60;100.00
55755;BME280;41674;52.290;-1.474;2022-11-15T07:21:49;98837.87;;;8.99;100.00
55755;BME280;41674;52.290;-1.474;2022-11-15T07:24:18;98835.82;;;8.66;100.00
55755;BME280;41674;52.290;-1.474;2022-11-15T07:26:48;98832.93;;;8.26;100.00
55755;BME280;41674;52.290;-1.474;2022-11-15T07:29:17;98833.87;;;8.07;100.00
55755;BME280;41674;52.290;-1.474;2022-11-15T07:31:47;98830.75;;;8.37;100.00
55755;BME280;41674;52.290;-1.474;2022-11-15T07:34:16;98828.17;;;8.69;100.00
55755;BME280;41674;52.290;-1.474;2022-11-15T07:36:46;98822.63;;;8.52;100.00
55755;BME280;41674;52.290;-1.474;2022-11-15T07:39:16;98829.01;;;8.53;100.00
55755;BME280;41674;52.290;-1.474;2022-11-15T07:41:45;98820.45;;;8.09;100.00
55755;BME280;41674;52.290;-1.474;2022-11-15T07:44:15;98821.38;;;8.61;100.00
55755;BME280;41674;52.290;-1.474;2022-11-15T07:46:44;98822.59;;;8.98;100.00
55755;BME280;41674;52.290;-1.474;2022-11-15T07:49:14;98818.77;;;9.00;100.00
55755;BME280;41674;52.290;-1.474;2022-11-15T07:51:45;98820.93;;;8.31;100.00
55755;BME280;41674;52.290;-1.474;2022-11-15T07:54:13;98807.07;;;8.47;100.00
55755;BME280;41674;52.290;-1.474;2022-11-15T07:56:43;98806.30;;;9.19;100.00
55755;BME280;41674;52.290;-1.474;2022-11-15T07:59:12;98801.35;;;9.16;100.00
55755;BME280;41674;52.290;-1.474;2022-11-15T08:01:42;98799.62;;;8.95;100.00
55755;BME280;41674;52.290;-1.474;2022-11-15T08:04:12;98792.75;;;8.84;100.00
55755;BME280;41674;52.290;-1.474;2022-11-15T08:06:41;98794.00;;;8.33;100.00
55755;BME280;41674;52.290;-1.474;2022-11-15T08:09:10;98785.63;;;8.67;100.00
55755;BME280;41674;52.290;-1.474;2022-11-15T08:11:40;98777.66;;;8.27;100.00
55755;BME280;41674;52.290;-1.474;2022-11-15T08:14:10;98765.45;;;8.55;100.00
55755;BME280;41674;52.290;-1.474;2022-11-15T08:16:40;98760.41;;;9.03;100.00
55755;BME280;41674;52.290;-1.474;2022-11-15T08:19:09;98741.72;;;8.21;100.00
55755;BME280;41674;52.290;-1.474;2022-11-15T08:21:38;98749.40;;;7.90;100.00
55755;BME280;41674;52.290;-1.474;2022-11-15T08:24:10;98739.11;;;8.60;100.00
55755;BME280;41674;52.290;-1.474;2022-11-15T08:26:38;98733.96;;;8.55;100.00
55755;BME280;41674;52.290;-1.474;2022-11-15T08:29:07;98737.64;;;8.30;100.00
55755;BME280;41674;52.290;-1.474;2022-11-15T08:31:37;98730.38;;;9.29;100.00
55755;BME280;41674;52.290;-1.474;2022-11-15T08:34:06;98736.35;;;8.74;100.00
55755;BME280;41674;52.290;-1.474;2022-11-15T08:36:41;98731.98;;;8.65;100.00
55755;BME280;41674;52.290;-1.474;2022-11-15T08:39:05;98729.04;;;8.44;100.00
55755;BME280;41674;52.290;-1.474;2022-11-15T08:41:37;98731.41;;;8.45;100.00
55755;BME280;41674;52.290;-1.474;2022-11-15T08:44:05;98725.34;;;8.50;100.00
55755;BME280;41674;52.290;-1.474;2022-11-15T08:46:34;98720.95;;;8.65;100.00
55755;BME280;41674;52.290;-1.474;2022-11-15T08:49:04;98711.95;;;9.53;100.00
55755;BME280;41674;52.290;-1.474;2022-11-15T08:51:33;98713.63;;;8.28;100.00
55755;BME280;41674;52.290;-1.474;2022-11-15T08:54:03;98714.87;;;8.55;100.00
55755;BME280;41674;52.290;-1.474;2022-11-15T08:56:33;98700.04;;;8.51;100.00
55755;BME280;41674;52.290;-1.474;2022-11-15T08:59:02;98697.02;;;8.74;100.00
55755;BME280;41674;52.290;-1.474;2022-11-15T09:01:32;98690.21;;;8.87;100.00
55755;BME280;41674;52.290;-1.474;2022-11-15T09:04:02;98688.04;;;8.41;100.00
55755;BME280;41674;52.290;-1.474;2022-11-15T09:06:31;98679.79;;;8.91;100.00
55755;BME280;41674;52.290;-1.474;2022-11-15T09:09:01;98672.78;;;8.65;100.00
55755;BME280;41674;52.290;-1.474;2022-11-15T09:11:30;98670.71;;;8.82;100.00
55755;BME280;41674;52.290;-1.474;2022-11-15T09:14:00;98663.32;;;9.14;100.00
55755;BME280;41674;52.290;-1.474;2022-11-15T09:16:31;98655.89;;;9.04;100.00
55755;BME280;41674;52.290;-1.474;2022-11-15T09:18:59;98650.48;;;8.79;100.00
55755;BME280;41674;52.290;-1.474;2022-11-15T09:21:38;98642.16;;;9.12;100.00
55755;BME280;41674;52.290;-1.474;2022-11-15T09:23:58;98631.22;;;8.43;100.00
55755;BME280;41674;52.290;-1.474;2022-11-15T09:26:28;98630.38;;;9.21;100.00
55755;BME280;41674;52.290;-1.474;2022-11-15T09:28:57;98629.69;;;8.96;100.00
55755;BME280;41674;52.290;-1.474;2022-11-15T09:31:27;98622.72;;;9.16;100.00
55755;BME280;41674;52.290;-1.474;2022-11-15T09:33:56;98622.71;;;9.26;100.00
55755;BME280;41674;52.290;-1.474;2022-11-15T09:36:26;98613.81;;;8.91;100.00
55755;BME280;41674;52.290;-1.474;2022-11-15T09:38:57;98615.80;;;9.12;100.00
55755;BME280;41674;52.290;-1.474;2022-11-15T09:41:34;98616.09;;;9.13;100.00
55755;BME280;41674;52.290;-1.474;2022-11-15T09:44:04;98608.41;;;9.45;100.00
55755;BME280;41674;52.290;-1.474;2022-11-15T09:46:31;98606.86;;;9.36;100.00
55755;BME280;41674;52.290;-1.474;2022-11-15T09:48:54;98598.93;;;9.19;100.00
55755;BME280;41674;52.290;-1.474;2022-11-15T09:51:28;98601.26;;;8.74;100.00
55755;BME280;41674;52.290;-1.474;2022-11-15T09:53:59;98600.13;;;9.14;100.00
55755;BME280;41674;52.290;-1.474;2022-11-15T09:56:26;98592.22;;;9.16;100.00
55755;BME280;41674;52.290;-1.474;2022-11-15T09:59:00;98590.24;;;9.93;100.00
55755;BME280;41674;52.290;-1.474;2022-11-15T10:01:35;98595.66;;;9.08;100.00
55755;BME280;41674;52.290;-1.474;2022-11-15T10:03:53;98593.59;;;9.02;100.00
55755;BME280;41674;52.290;-1.474;2022-11-15T10:06:25;98585.56;;;9.32;100.00
55755;BME280;41674;52.290;-1.474;2022-11-15T10:09:05;98579.62;;;9.30;100.00
55755;BME280;41674;52.290;-1.474;2022-11-15T10:11:22;98590.28;;;9.48;100.00
55755;BME280;41674;52.290;-1.474;2022-11-15T10:13:50;98592.27;;;9.37;100.00
55755;BME280;41674;52.290;-1.474;2022-11-15T10:16:35;98588.67;;;9.29;100.00
55755;BME280;41674;52.290;-1.474;2022-11-15T10:18:54;98582.92;;;9.07;100.00
55755;BME280;41674;52.290;-1.474;2022-11-15T10:21:27;98595.64;;;9.71;100.00
55755;BME280;41674;52.290;-1.474;2022-11-15T10:23:48;98600.42;;;9.81;100.00
55755;BME280;41674;52.290;-1.474;2022-11-15T10:26:28;98605.40;;;9.54;100.00
55755;BME280;41674;52.290;-1.474;2022-11-15T10:28:47;98592.68;;;9.57;100.00
55755;BME280;41674;52.290;-1.474;2022-11-15T10:31:23;98584.47;;;9.24;100.00
55755;BME280;41674;52.290;-1.474;2022-11-15T10:33:46;98578.86;;;9.79;100.00
55755;BME280;41674;52.290;-1.474;2022-11-15T10:36:21;98573.95;;;9.59;100.00
55755;BME280;41674;52.290;-1.474;2022-11-15T10:38:53;98566.30;;;10.66;100.00
55755;BME280;41674;52.290;-1.474;2022-11-15T10:41:16;98555.95;;;9.90;100.00
55755;BME280;41674;52.290;-1.474;2022-11-15T10:43:45;98555.87;;;9.99;100.00
55755;BME280;41674;52.290;-1.474;2022-11-15T10:46:20;98555.22;;;9.66;100.00
55755;BME280;41674;52.290;-1.474;2022-11-15T10:48:43;98534.23;;;9.34;100.00
55755;BME280;41674;52.290;-1.474;2022-11-15T10:51:19;98516.37;;;9.94;100.00
55755;BME280;41674;52.290;-1.474;2022-11-15T10:53:45;98510.40;;;9.79;100.00
55755;BME280;41674;52.290;-1.474;2022-11-15T10:56:13;98504.88;;;9.66;100.00
55755;BME280;41674;52.290;-1.474;2022-11-15T10:58:43;98502.91;;;9.73;100.00
55755;BME280;41674;52.290;-1.474;2022-11-15T11:01:14;98503.48;;;9.17;100.00
55755;BME280;41674;52.290;-1.474;2022-11-15T11:03:42;98491.11;;;9.76;100.00
55755;BME280;41674;52.290;-1.474;2022-11-15T11:06:12;98487.94;;;9.48;100.00
55755;BME280;41674;52.290;-1.474;2022-11-15T11:08:40;98483.13;;;9.87;100.00
55755;BME280;41674;52.290;-1.474;2022-11-15T11:11:14;98472.93;;;10.09;100.00
55755;BME280;41674;52.290;-1.474;2022-11-15T11:13:40;98465.22;;;10.17;100.00
55755;BME280;41674;52.290;-1.474;2022-11-15T11:16:19;98453.05;;;10.12;100.00
55755;BME280;41674;52.290;-1.474;2022-11-15T11:18:42;98446.30;;;9.81;100.00
55755;BME280;41674;52.290;-1.474;2022-11-15T11:21:10;98446.28;;;9.09;100.00
55755;BME280;41674;52.290;-1.474;2022-11-15T11:23:45;98447.41;;;9.83;100.00
55755;BME280;41674;52.290;-1.474;2022-11-15T11:26:18;98444.37;;;9.86;100.00
55755;BME280;41674;52.290;-1.474;2022-11-15T11:28:41;98444.77;;;9.98;100.00
55755;BME280;41674;52.290;-1.474;2022-11-15T11:31:16;98442.08;;;10.18;100.00
55755;BME280;41674;52.290;-1.474;2022-11-15T11:33:42;98439.48;;;9.81;100.00
55755;BME280;41674;52.290;-1.474;2022-11-15T11:36:16;98438.69;;;10.29;100.00
55755;BME280;41674;52.290;-1.474;2022-11-15T11:38:47;98435.30;;;9.96;100.00
55755;BME280;41674;52.290;-1.474;2022-11-15T11:41:12;98436.29;;;10.19;100.00
55755;BME280;41674;52.290;-1.474;2022-11-15T11:43:41;98431.75;;;10.59;100.00
55755;BME280;41674;52.290;-1.474;2022-11-15T11:46:14;98425.23;;;10.26;100.00
55755;BME280;41674;52.290;-1.474;2022-11-15T11:48:40;98425.28;;;10.26;100.00
55755;BME280;41674;52.290;-1.474;2022-11-15T11:51:08;98428.30;;;10.35;100.00
55755;BME280;41674;52.290;-1.474;2022-11-15T11:53:37;98422.11;;;11.10;100.00
55755;BME280;41674;52.290;-1.474;2022-11-15T11:56:07;98410.71;;;10.61;100.00
55755;BME280;41674;52.290;-1.474;2022-11-15T11:58:34;98405.30;;;10.88;100.00
55755;BME280;41674;52.290;-1.474;2022-11-15T12:01:08;98404.71;;;10.34;100.00
55755;BME280;41674;52.290;-1.474;2022-11-15T12:03:38;98397.39;;;10.74;100.00
55755;BME280;41674;52.290;-1.474;2022-11-15T12:06:01;98399.33;;;10.56;100.00
55755;BME280;41674;52.290;-1.474;2022-11-15T12:08:35;98408.39;;;10.26;100.00
55755;BME280;41674;52.290;-1.474;2022-11-15T12:11:04;98404.37;;;10.54;100.00
55755;BME280;41674;52.290;-1.474;2022-11-15T12:13:30;98410.80;;;9.84;100.00
55755;BME280;41674;52.290;-1.474;2022-11-15T12:16:05;98403.24;;;10.87;100.00
55755;BME280;41674;52.290;-1.474;2022-11-15T12:18:30;98398.90;;;10.25;100.00
55755;BME280;41674;52.290;-1.474;2022-11-15T12:21:00;98435.92;;;10.42;100.00
55755;BME280;41674;52.290;-1.474;2022-11-15T12:23:28;98418.84;;;10.81;100.00
55755;BME280;41674;52.290;-1.474;2022-11-15T12:25:59;98411.39;;;10.79;100.00
55755;BME280;41674;52.290;-1.474;2022-11-15T12:28:32;98415.24;;;10.96;100.00
55755;BME280;41674;52.290;-1.474;2022-11-15T12:30:59;98420.83;;;11.36;100.00
55755;BME280;41674;52.290;-1.474;2022-11-15T12:33:33;98427.60;;;11.03;100.00
55755;BME280;41674;52.290;-1.474;2022-11-15T12:35:59;98426.49;;;11.32;100.00
55755;BME280;41674;52.290;-1.474;2022-11-15T12:43:38;98373.30;;;13.62;96.39
55755;BME280;41674;52.290;-1.474;2022-11-15T12:45:52;98366.66;;;13.68;94.79
55755;BME280;41674;52.290;-1.474;2022-11-15T12:50:55;98348.97;;;14.46;93.27
55755;BME280;41674;52.290;-1.474;2022-11-15T12:53:27;98358.80;;;14.37;97.35
55755;BME280;41674;52.290;-1.474;2022-11-15T12:58:28;98386.44;;;13.86;92.98
55755;BME280;41674;52.290;-1.474;2022-11-15T13:00:49;98382.38;;;14.32;92.24
55755;BME280;41674;52.290;-1.474;2022-11-15T13:03:26;98377.82;;;14.00;91.55
55755;BME280;41674;52.290;-1.474;2022-11-15T13:05:59;98371.58;;;14.36;88.71
55755;BME280;41674;52.290;-1.474;2022-11-15T13:10:48;98369.83;;;14.99;87.56
55755;BME280;41674;52.290;-1.474;2022-11-15T13:15:52;98388.88;;;14.86;85.75
55755;BME280;41674;52.290;-1.474;2022-11-15T13:18:28;98390.87;;;14.70;85.37
55755;BME280;41674;52.290;-1.474;2022-11-15T13:20:46;98386.23;;;13.42;89.24
55755;BME280;41674;52.290;-1.474;2022-11-15T13:23:16;98378.74;;;13.47;88.25